Terminal Aerodrome Forecast
Issued by NWS

Home | Current Version | Previous Version | Graphics & Text | Print | Product List | Glossary On
Versions: 1 2 3 4 5 6 7 8 9 10 11 12 13 14 15 16 17 18 19
000
FTUS43 KGRB 161737
TAFCWA
TAF
KCWA 161737Z 1618/1718 33012G19KT P6SM -SHSN OVC025
     FM162300 32011KT P6SM -SHSN OVC035
     FM170200 31009KT P6SM BKN024
     FM171000 31009KT P6SM BKN016
     FM171400 32010KT P6SM BKN025=

USA.gov is the U.S. government's official web portal to all federal, state and local government web resources and services.